• Join FlightAware (Why Join?)
  • Login
  • US Flag 
03:53PM EDT


 

Airport Tracker/Info


-or-


 

Live Flight TrackerFlight Track Log ✈ PDT4205 ✈ 13-May-2012 ✈ KCLT - KHXD

Flight Track Log - Related Links

Times and Time Zones

All times are in EDT time to prevent confusion due to time zone crossing. See the PDT4205 flight status page for this flight to view local times or setup timezone preferences in your user account.

Time Position Orientation Groundspeed Altitude Reporting Facility
EDT Latitude Longitude Course Direction KTS MPH feet Rate Location/Type
01:01PM 35.2011 -80.9353 148° Southeast 136 157 1,300  Level Atlanta Center
01:06PM 35.0458 -80.8167 182° South 163 188 6,200 960 Climbing Atlanta Center
01:08PM 34.9981 -80.8186 182° South 163 188 7,200 780 Climbing Atlanta Center
01:10PM 34.8939 -80.8222 166° South 175 201 8,900 720 Climbing Jacksonville Center
01:11PM 34.8478 -80.8081 161° South 175 201 9,700 660 Climbing Jacksonville Center
01:12PM 34.7972 -80.7867 160° South 180 207 10,300 660 Climbing Jacksonville Center
01:13PM 34.7489 -80.7650 157° South 185 213 11,100 660 Climbing Jacksonville Center
01:14PM 34.7025 -80.7411 155° Southeast 185 213 11,700 600 Climbing Jacksonville Center
01:15PM 34.6564 -80.7144 163° South 190 219 12,400 660 Climbing Jacksonville Center
01:16PM 34.6058 -80.6956 168° South 190 219 13,100 660 Climbing Jacksonville Center
01:17PM 34.5619 -80.6839 184° South 176 203 13,800 600 Climbing Jacksonville Center
01:18PM 34.5097 -80.6878 177° South 184 212 14,400 600 Climbing Jacksonville Center
01:19PM 34.4597 -80.6842 183° South 188 216 15,100 720 Climbing Jacksonville Center
01:20PM 34.4097 -80.6878 183° South 188 216 15,900 480 Climbing Jacksonville Center
01:21PM 34.3533 -80.6917 179° South 188 216 16,100 60 Climbing Jacksonville Center
01:22PM 34.2969 -80.6908 181° South 213 245 16,100  Level Jacksonville Center
01:23PM 34.2386 -80.6922 181° South 213 245 16,100  Level Jacksonville Center
01:24PM 34.1844 -80.6936 183° South 213 245 16,100  Level Jacksonville Center
01:25PM 34.1242 -80.6975 177° South 213 245 16,100  Level Jacksonville Center
01:26PM 34.0678 -80.6942 183° South 213 245 16,100  Level Jacksonville Center
01:27PM 34.0092 -80.6981 177° South 213 245 16,100  Level Jacksonville Center
01:28PM 33.9528 -80.6944 183° South 213 245 16,100  Level Jacksonville Center
01:29PM 33.8967 -80.6983 185° South 218 251 16,100  Level Jacksonville Center
01:30PM 33.8383 -80.7047 181° South 213 245 16,100  Level Jacksonville Center
01:31PM 33.7842 -80.7061 181° South 213 245 16,100  Level Jacksonville Center
01:32PM 33.7278 -80.7075 171° South 213 245 16,100  Level Jacksonville Center
01:33PM 33.6711 -80.6964 175° South 213 245 16,100  Level Jacksonville Center
01:34PM 33.6147 -80.6903 181° South 213 245 16,100  Level Jacksonville Center
01:35PM 33.5606 -80.6917 179° South 218 251 16,100  Level Jacksonville Center
01:36PM 33.5042 -80.6906 183° South 218 251 16,100  Level Jacksonville Center
01:37PM 33.4478 -80.6944 185° South 213 245 16,100  Level Jacksonville Center
01:38PM 33.3894 -80.7008 181° South 213 245 16,100  Level Jacksonville Center
01:39PM 33.3311 -80.7022 181° South 213 245 16,100  Level Jacksonville Center
01:40PM 33.2747 -80.7039 181° South 213 245 16,100  Level Jacksonville Center
01:41PM 33.2144 -80.7053 177° South 213 245 16,100  Level Jacksonville Center
01:42PM 33.1536 -80.7017 175° South 213 245 16,100 -420 Level Jacksonville Center
01:43PM 33.0953 -80.6958 176° South 213 245 15,300 -900 Descending Jacksonville Center
01:44PM 33.0303 -80.6900 181° South 219 252 14,300 -1,200 Descending Jacksonville Center
01:45PM 32.9658 -80.6914 181° South 225 259 13,000 -1,440 Descending Jacksonville Center
01:46PM 32.9011 -80.6931 183° South 235 270 11,500 -1,500 Descending Jacksonville Center
01:47PM 32.8364 -80.6972 181° South 235 270 10,000 -1,500 Descending Jacksonville Center
01:48PM 32.7758 -80.6986 181° South 235 270 8,600 -1,500 Descending Jacksonville Center
01:49PM 32.7111 -80.7003 179° South 235 270 7,100 -1,620 Descending Jacksonville Center
01:50PM 32.6464 -80.6992 179° South 228 262 5,400 -1,620 Descending Jacksonville Center
01:51PM 32.5858 -80.6983 181° South 212 244 3,900 -1,500 Descending Jacksonville Center
01:52PM 32.5339 -80.6994 181° South 207 238 2,500 -1,440 Descending Jacksonville Center